Time;durP1;ratioP1;P1;durP2;ratioP2;P2;SDS_P1;SDS_P2;PMS_P1;PMS_P2;Temp;Humidity;BMP_temperature;BMP_pressure;BME280_temperature;BME280_humidity;BME280_pressure;Samples;Min_cycle;Max_cycle;Signal;HPM_P1;HPM_P2
2023/01/21 00:01:09;;;;;;;;;;;5.50;99.90;;;;;;5071342;28;20895;-77
2023/01/21 00:03:34;;;;;;;;;;;5.50;99.90;;;;;;5071338;28;20334;-75
2023/01/21 00:06:00;;;;;;;;;;;5.50;99.90;;;;;;5071180;28;19995;-76
2023/01/21 00:08:26;;;;;;;;;;;5.50;99.90;;;;;;5071779;28;19954;-77
2023/01/21 00:10:51;;;;;;;;;;;5.50;99.90;;;;;;5070237;28;19960;-81
2023/01/21 00:13:17;;;;;;;;;;;5.50;99.90;;;;;;5072297;28;19908;-79
2023/01/21 00:15:43;;;;;;;;;;;5.50;99.90;;;;;;5071943;28;19909;-78
2023/01/21 00:18:09;;;;;;;;;;;5.50;99.90;;;;;;5071422;28;19991;-79
2023/01/21 00:20:35;;;;;;;;;;;5.50;99.90;;;;;;5070880;28;20362;-79
2023/01/21 00:23:00;;;;;;;;;;;5.60;99.90;;;;;;5071640;28;19908;-78
2023/01/21 00:25:26;;;;;;;;;;;5.60;99.90;;;;;;5072099;28;19954;-79
2023/01/21 00:27:52;;;;;;;;;;;5.60;99.90;;;;;;5071540;28;19988;-78
2023/01/21 00:30:17;;;;;;;;;;;5.60;99.90;;;;;;5071887;28;19952;-78
2023/01/21 00:32:43;;;;;;;;;;;5.60;99.90;;;;;;5072208;28;19909;-78
2023/01/21 00:35:09;;;;;;;;;;;5.60;99.90;;;;;;5071326;28;20077;-78
2023/01/21 00:37:34;;;;;;;;;;;5.70;99.90;;;;;;5071847;28;19908;-78
2023/01/21 00:40:00;;;;;;;;;;;5.80;99.90;;;;;;5069637;28;20389;-78
2023/01/21 00:42:26;;;;;;;;;;;5.80;99.90;;;;;;5071628;28;19961;-78
2023/01/21 00:44:52;;;;;;;;;;;5.80;99.90;;;;;;5071185;28;19998;-80
2023/01/21 00:47:18;;;;;;;;;;;5.80;99.90;;;;;;5071359;28;20029;-78
2023/01/21 00:49:43;;;;;;;;;;;5.80;99.90;;;;;;5071230;28;19909;-77
2023/01/21 00:52:09;;;;;;;;;;;5.70;99.90;;;;;;5068689;28;19955;-78
2023/01/21 00:54:34;;;;;;;;;;;5.70;99.90;;;;;;5070851;28;19908;-79
2023/01/21 00:57:00;;;;;;;;;;;5.70;99.90;;;;;;5070894;28;19959;-78
2023/01/21 00:59:27;;;;;;;;;;;5.70;99.90;;;;;;5070921;28;19919;-78
2023/01/21 01:01:52;;;;;;;;;;;5.70;99.90;;;;;;5071384;28;20236;-81
2023/01/21 01:04:18;;;;;;;;;;;5.70;99.90;;;;;;5071284;28;19919;-78
2023/01/21 01:06:44;;;;;;;;;;;5.60;99.90;;;;;;5071326;28;19995;-78
2023/01/21 01:09:11;;;;;;;;;;;5.70;99.90;;;;;;5069245;28;20415;-78
2023/01/21 01:11:37;;;;;;;;;;;5.70;99.90;;;;;;5070763;28;20396;-78
2023/01/21 01:14:03;;;;;;;;;;;5.70;99.90;;;;;;5070383;28;19919;-78
2023/01/21 01:16:29;;;;;;;;;;;5.60;99.90;;;;;;5071104;28;20431;-77
2023/01/21 01:18:55;;;;;;;;;;;5.60;99.90;;;;;;5070101;28;19962;-79
2023/01/21 01:21:21;;;;;;;;;;;5.60;99.90;;;;;;5071014;28;19967;-77
2023/01/21 01:23:47;;;;;;;;;;;5.60;99.90;;;;;;5070742;28;19908;-78
2023/01/21 01:26:14;;;;;;;;;;;5.60;99.90;;;;;;5070348;28;20098;-78
2023/01/21 01:28:39;;;;;;;;;;;5.60;99.90;;;;;;5071064;28;20084;-78
2023/01/21 01:31:07;;;;;;;;;;;5.60;99.90;;;;;;5068801;28;20383;-77
2023/01/21 01:33:33;;;;;;;;;;;5.60;99.90;;;;;;5071262;28;19991;-78
2023/01/21 01:36:05;;;;;;;;;;;5.60;99.90;;;;;;5070271;28;20008;-78
2023/01/21 01:38:31;;;;;;;;;;;5.60;99.90;;;;;;5069563;28;20308;-78
2023/01/21 01:40:57;;;;;;;;;;;5.60;99.90;;;;;;5070271;28;19909;-78
2023/01/21 01:43:24;;;;;;;;;;;5.60;99.90;;;;;;5071004;28;20382;-77
2023/01/21 01:45:50;;;;;;;;;;;5.50;99.90;;;;;;5071045;28;19909;-77
2023/01/21 01:48:19;;;;;;;;;;;5.60;99.90;;;;;;5070106;28;20584;-78
2023/01/21 01:50:45;;;;;;;;;;;5.60;99.90;;;;;;5070933;28;20368;-78
2023/01/21 01:53:12;;;;;;;;;;;5.60;99.90;;;;;;5070268;28;19919;-78
2023/01/21 01:55:38;;;;;;;;;;;5.60;99.90;;;;;;5070797;28;19921;-78
2023/01/21 01:58:05;;;;;;;;;;;5.60;99.90;;;;;;5070520;28;20307;-78
2023/01/21 02:00:31;;;;;;;;;;;5.70;99.90;;;;;;5070568;28;19909;-78
2023/01/21 02:05:41;;;;;;;;;;;5.70;99.90;;;;;;5070731;28;19924;-77
2023/01/21 02:08:07;;;;;;;;;;;5.70;99.90;;;;;;5070305;28;19924;-77
2023/01/21 02:10:33;;;;;;;;;;;5.70;99.90;;;;;;5070769;28;20226;-77
2023/01/21 02:12:59;;;;;;;;;;;5.70;99.90;;;;;;5073514;28;19920;-78
2023/01/21 02:15:31;;;;;;;;;;;5.70;99.90;;;;;;5074507;28;19908;-77
2023/01/21 02:18:03;;;;;;;;;;;5.70;99.90;;;;;;5074313;28;19955;-81
2023/01/21 02:20:55;;;;;;;;;;;5.70;99.90;;;;;;5073501;28;19912;-77
2023/01/21 02:23:39;;;;;;;;;;;5.60;99.90;;;;;;5050200;28;19966;-77
2023/01/21 02:26:16;;;;;;;;;;;5.60;99.90;;;;;;5073835;28;19909;-77
2023/01/21 02:28:51;;;;;;;;;;;5.60;99.90;;;;;;5073137;28;19916;-77
2023/01/21 02:31:35;;;;;;;;;;;5.60;99.90;;;;;;5073908;28;19932;-77
2023/01/21 02:34:06;;;;;;;;;;;5.70;99.90;;;;;;5073560;28;20226;-77
2023/01/21 02:36:32;;;;;;;;;;;5.70;99.90;;;;;;5073220;28;19965;-78
2023/01/21 02:39:16;;;;;;;;;;;5.70;99.90;;;;;;5074260;28;20007;-81
2023/01/21 02:41:56;;;;;;;;;;;5.70;99.90;;;;;;5074245;28;19951;-78
2023/01/21 02:44:43;;;;;;;;;;;5.80;99.90;;;;;;5073807;28;19908;-78
2023/01/21 02:47:22;;;;;;;;;;;5.70;99.90;;;;;;5073632;28;19932;-78
2023/01/21 02:49:48;;;;;;;;;;;5.80;99.90;;;;;;5073527;28;19956;-78
2023/01/21 02:52:17;;;;;;;;;;;5.80;99.90;;;;;;5074097;28;19962;-78
2023/01/21 02:54:54;;;;;;;;;;;5.80;99.90;;;;;;5074268;28;19920;-78
2023/01/21 02:57:38;;;;;;;;;;;5.80;99.90;;;;;;5072378;28;20006;-78
2023/01/21 03:00:07;;;;;;;;;;;5.80;99.90;;;;;;5073457;28;20419;-78
2023/01/21 03:02:51;;;;;;;;;;;5.80;99.90;;;;;;5073888;28;20332;-78
2023/01/21 03:05:35;;;;;;;;;;;5.90;99.90;;;;;;5073826;28;19923;-77
2023/01/21 03:08:04;;;;;;;;;;;5.90;99.90;;;;;;5074207;28;19908;-81
2023/01/21 03:10:39;;;;;;;;;;;5.90;99.90;;;;;;5073998;28;19924;-78
2023/01/21 03:13:07;;;;;;;;;;;5.90;99.90;;;;;;5073504;28;19963;-77
2023/01/21 03:18:26;;;;;;;;;;;5.80;99.90;;;;;;5072937;28;19923;-77
2023/01/21 03:20:54;;;;;;;;;;;5.90;99.90;;;;;;5071890;28;20384;-78
2023/01/21 03:23:22;;;;;;;;;;;5.80;99.90;;;;;;5072528;28;19920;-78
2023/01/21 03:25:49;;;;;;;;;;;5.90;99.90;;;;;;5073052;28;19910;-78
2023/01/21 03:28:17;;;;;;;;;;;5.90;99.90;;;;;;5072857;28;19915;-78
2023/01/21 03:30:44;;;;;;;;;;;5.90;99.90;;;;;;5073513;28;20016;-78
2023/01/21 03:33:11;;;;;;;;;;;5.90;99.90;;;;;;5073250;28;19962;-78
2023/01/21 03:35:40;;;;;;;;;;;5.90;99.90;;;;;;5073929;28;20058;-77
2023/01/21 03:38:18;;;;;;;;;;;5.90;99.90;;;;;;5072873;28;19908;-77
2023/01/21 03:40:49;;;;;;;;;;;5.80;99.90;;;;;;5073285;28;19972;-77
2023/01/21 03:43:15;;;;;;;;;;;5.70;99.90;;;;;;5072310;28;19956;-78
2023/01/21 03:45:48;;;;;;;;;;;5.70;99.90;;;;;;5073046;28;19959;-78
2023/01/21 03:48:25;;;;;;;;;;;5.70;99.90;;;;;;5072649;28;19909;-78
2023/01/21 03:51:03;;;;;;;;;;;5.70;99.90;;;;;;5071386;28;20265;-78
2023/01/21 03:53:28;;;;;;;;;;;5.70;99.90;;;;;;5072594;28;19909;-78
2023/01/21 03:55:54;;;;;;;;;;;5.60;99.90;;;;;;5072637;28;20392;-77
2023/01/21 03:58:20;;;;;;;;;;;5.60;99.90;;;;;;5072052;28;19916;-78
2023/01/21 04:00:47;;;;;;;;;;;5.60;99.90;;;;;;5072771;28;19908;-78
2023/01/21 04:03:12;;;;;;;;;;;5.60;99.90;;;;;;5072186;28;19924;-77
2023/01/21 04:05:38;;;;;;;;;;;5.60;99.90;;;;;;5072707;28;19913;-77
2023/01/21 04:08:03;;;;;;;;;;;5.60;99.90;;;;;;5072426;28;19916;-80
2023/01/21 04:10:29;;;;;;;;;;;5.50;99.90;;;;;;5072321;28;20378;-79
2023/01/21 04:12:54;;;;;;;;;;;5.50;99.90;;;;;;5072733;28;19909;-78
2023/01/21 04:15:20;;;;;;;;;;;5.50;99.90;;;;;;5070549;28;19956;-78
2023/01/21 04:17:46;;;;;;;;;;;5.50;99.90;;;;;;5070998;28;20284;-79
2023/01/21 04:20:11;;;;;;;;;;;5.40;99.90;;;;;;5070224;28;19951;-77
2023/01/21 04:22:37;;;;;;;;;;;5.40;99.90;;;;;;5072327;28;19935;-77
2023/01/21 04:25:04;;;;;;;;;;;5.40;99.90;;;;;;5072438;28;20349;-77
2023/01/21 04:27:29;;;;;;;;;;;5.40;99.90;;;;;;5072088;28;20011;-78
2023/01/21 04:29:55;;;;;;;;;;;5.40;99.90;;;;;;5072132;28;20325;-77
2023/01/21 04:32:20;;;;;;;;;;;5.40;99.90;;;;;;5071740;28;19908;-78
2023/01/21 04:34:46;;;;;;;;;;;5.30;99.90;;;;;;5070022;28;19908;-78
2023/01/21 04:37:12;;;;;;;;;;;5.30;99.90;;;;;;5071477;28;19954;-78
2023/01/21 04:39:37;;;;;;;;;;;5.30;99.90;;;;;;5071975;28;19909;-78
2023/01/21 04:42:04;;;;;;;;;;;5.30;99.90;;;;;;5072097;28;20303;-77
2023/01/21 04:44:29;;;;;;;;;;;5.30;99.90;;;;;;5071349;28;19908;-77
2023/01/21 04:46:55;;;;;;;;;;;5.30;99.90;;;;;;5071990;28;19915;-78
2023/01/21 04:49:20;;;;;;;;;;;5.30;99.90;;;;;;5071175;28;19991;-78
2023/01/21 04:51:46;;;;;;;;;;;5.30;99.90;;;;;;5071922;28;19916;-78
2023/01/21 04:54:11;;;;;;;;;;;5.30;99.90;;;;;;5068199;28;20594;-78
2023/01/21 04:56:37;;;;;;;;;;;5.30;99.90;;;;;;5071345;28;19984;-78
2023/01/21 04:59:03;;;;;;;;;;;5.30;99.90;;;;;;5071548;28;19921;-79
2023/01/21 05:01:28;;;;;;;;;;;5.30;99.90;;;;;;5070819;28;19966;-78
2023/01/21 05:03:54;;;;;;;;;;;5.30;99.90;;;;;;5071529;28;19908;-78
2023/01/21 05:06:19;;;;;;;;;;;5.30;99.90;;;;;;5071094;28;19930;-78
2023/01/21 05:08:45;;;;;;;;;;;5.30;99.90;;;;;;5069917;28;19916;-78
2023/01/21 05:11:11;;;;;;;;;;;5.40;99.90;;;;;;5070537;28;20301;-79
2023/01/21 05:13:37;;;;;;;;;;;5.40;99.90;;;;;;5071132;28;19927;-78
2023/01/21 05:16:04;;;;;;;;;;;5.40;99.90;;;;;;5071493;28;19913;-78
2023/01/21 05:18:29;;;;;;;;;;;5.30;99.90;;;;;;5070900;28;19992;-78
2023/01/21 05:20:55;;;;;;;;;;;5.30;99.90;;;;;;5070002;28;19989;-78
2023/01/21 05:23:21;;;;;;;;;;;5.30;99.90;;;;;;5070521;28;20361;-78
2023/01/21 05:25:47;;;;;;;;;;;5.40;99.90;;;;;;5071236;28;19995;-77
2023/01/21 05:28:13;;;;;;;;;;;5.40;99.90;;;;;;5070984;28;19915;-77
2023/01/21 05:30:38;;;;;;;;;;;5.30;99.90;;;;;;5070803;28;20305;-78
2023/01/21 05:33:04;;;;;;;;;;;5.30;99.90;;;;;;5070921;28;19909;-77
2023/01/21 05:35:30;;;;;;;;;;;5.40;99.90;;;;;;5070448;28;19919;-77
2023/01/21 05:37:55;;;;;;;;;;;5.30;99.90;;;;;;5071144;28;19913;-78
2023/01/21 05:40:21;;;;;;;;;;;5.30;99.90;;;;;;5070526;28;20415;-78
2023/01/21 05:42:46;;;;;;;;;;;5.30;99.90;;;;;;5071119;28;19951;-77
2023/01/21 05:45:12;;;;;;;;;;;5.30;99.90;;;;;;5070781;28;20392;-80
2023/01/21 05:47:38;;;;;;;;;;;5.30;99.90;;;;;;5070866;28;19909;-78
2023/01/21 05:50:04;;;;;;;;;;;5.30;99.90;;;;;;5070744;28;19923;-78
2023/01/21 05:52:30;;;;;;;;;;;5.30;99.90;;;;;;5070426;28;20134;-78
2023/01/21 05:54:55;;;;;;;;;;;5.30;99.90;;;;;;5070589;28;20354;-78
2023/01/21 05:57:21;;;;;;;;;;;5.30;99.90;;;;;;5070252;28;19958;-77
2023/01/21 05:59:46;;;;;;;;;;;5.30;99.90;;;;;;5069494;28;19908;-78
2023/01/21 06:02:12;;;;;;;;;;;5.30;99.90;;;;;;5070411;28;19954;-80
2023/01/21 06:04:37;;;;;;;;;;;5.30;99.90;;;;;;5069292;28;20392;-78
2023/01/21 06:07:03;;;;;;;;;;;5.30;99.90;;;;;;5071020;28;19909;-78
2023/01/21 06:09:28;;;;;;;;;;;5.30;99.90;;;;;;5069939;28;19919;-77
2023/01/21 06:11:54;;;;;;;;;;;5.20;99.90;;;;;;5070760;28;20251;-77
2023/01/21 06:14:19;;;;;;;;;;;5.30;99.90;;;;;;5069881;28;19913;-77
2023/01/21 06:16:45;;;;;;;;;;;5.40;99.90;;;;;;5071193;28;19915;-77
2023/01/21 06:19:11;;;;;;;;;;;5.60;99.90;;;;;;5070721;28;19913;-78
2023/01/21 06:21:36;;;;;;;;;;;5.80;99.90;;;;;;5070329;28;19996;-78
2023/01/21 06:24:02;;;;;;;;;;;6.10;99.90;;;;;;5071105;28;19999;-78
2023/01/21 06:26:27;;;;;;;;;;;6.20;99.90;;;;;;5069921;28;20338;-78
2023/01/21 06:28:56;;;;;;;;;;;6.40;99.90;;;;;;5070847;28;20040;-78
2023/01/21 06:31:22;;;;;;;;;;;6.50;99.90;;;;;;5069948;28;19939;-78
2023/01/21 06:33:47;;;;;;;;;;;6.50;99.90;;;;;;5070106;28;19916;-78
2023/01/21 06:36:13;;;;;;;;;;;6.60;99.90;;;;;;5070692;28;20368;-79
2023/01/21 06:38:38;;;;;;;;;;;6.60;99.90;;;;;;5070420;28;19909;-77
2023/01/21 06:41:04;;;;;;;;;;;6.60;99.90;;;;;;5070411;28;19909;-77
2023/01/21 06:43:29;;;;;;;;;;;6.60;99.90;;;;;;5069908;28;19912;-77
2023/01/21 06:45:55;;;;;;;;;;;6.60;99.90;;;;;;5068794;28;19978;-77
2023/01/21 06:48:21;;;;;;;;;;;6.60;99.90;;;;;;5069591;28;19951;-77
2023/01/21 06:50:46;;;;;;;;;;;6.50;99.90;;;;;;5070474;28;20334;-78
2023/01/21 06:53:12;;;;;;;;;;;6.50;99.90;;;;;;5070336;28;19942;-78
2023/01/21 06:55:37;;;;;;;;;;;6.50;99.90;;;;;;5069310;28;19924;-78
2023/01/21 06:58:03;;;;;;;;;;;6.60;99.90;;;;;;5071937;28;19908;-77
2023/01/21 07:00:29;;;;;;;;;;;6.50;99.90;;;;;;5073028;28;20407;-78
2023/01/21 07:02:55;;;;;;;;;;;6.50;99.90;;;;;;5073511;28;19915;-78
2023/01/21 07:05:20;;;;;;;;;;;6.50;99.90;;;;;;5073384;28;19913;-77
2023/01/21 07:07:46;;;;;;;;;;;6.50;99.90;;;;;;5073792;28;20234;-78
2023/01/21 07:10:12;;;;;;;;;;;6.50;99.90;;;;;;5071985;28;19981;-78
2023/01/21 07:12:37;;;;;;;;;;;6.50;99.90;;;;;;5072624;28;19912;-78
2023/01/21 07:15:03;;;;;;;;;;;6.50;99.90;;;;;;5073204;28;20003;-78
2023/01/21 07:17:28;;;;;;;;;;;6.50;99.90;;;;;;5072540;28;20427;-78
2023/01/21 07:19:54;;;;;;;;;;;6.50;99.90;;;;;;5073568;28;20388;-77
2023/01/21 07:22:20;;;;;;;;;;;6.50;99.90;;;;;;5072266;28;20276;-78
2023/01/21 07:24:45;;;;;;;;;;;6.60;99.90;;;;;;5072820;28;19909;-77
2023/01/21 07:27:11;;;;;;;;;;;6.60;99.90;;;;;;5073113;28;19966;-78
2023/01/21 07:29:36;;;;;;;;;;;6.60;99.90;;;;;;5072884;28;19908;-78
2023/01/21 07:32:02;;;;;;;;;;;6.70;99.90;;;;;;5073121;28;19980;-78
2023/01/21 07:34:28;;;;;;;;;;;6.80;99.90;;;;;;5072273;28;19915;-78
2023/01/21 07:36:53;;;;;;;;;;;6.80;99.90;;;;;;5072759;28;19978;-79
2023/01/21 07:39:19;;;;;;;;;;;6.80;99.90;;;;;;5072667;28;20007;-82
2023/01/21 07:41:45;;;;;;;;;;;6.90;99.90;;;;;;5072839;28;20226;-79
2023/01/21 07:44:10;;;;;;;;;;;6.80;99.90;;;;;;5071614;28;19912;-78
2023/01/21 07:46:36;;;;;;;;;;;6.90;99.90;;;;;;5072443;28;19915;-79
2023/01/21 07:49:01;;;;;;;;;;;6.90;99.90;;;;;;5073177;28;20357;-79
2023/01/21 07:51:27;;;;;;;;;;;6.90;99.90;;;;;;5072509;28;19927;-79
2023/01/21 07:53:54;;;;;;;;;;;6.90;99.90;;;;;;5072739;28;19952;-78
2023/01/21 07:56:19;;;;;;;;;;;6.90;99.90;;;;;;5073047;28;19924;-81
2023/01/21 07:58:45;;;;;;;;;;;6.90;99.90;;;;;;5071622;28;19909;-79
2023/01/21 08:01:11;;;;;;;;;;;7.00;99.90;;;;;;5073387;28;19919;-79
2023/01/21 08:03:37;;;;;;;;;;;7.00;99.90;;;;;;5072305;28;20281;-77
2023/01/21 08:06:03;;;;;;;;;;;6.90;99.90;;;;;;5073375;28;19970;-77
2023/01/21 08:08:29;;;;;;;;;;;6.90;99.90;;;;;;5072757;28;19931;-77
2023/01/21 08:10:55;;;;;;;;;;;6.90;99.90;;;;;;5073473;28;20314;-77
2023/01/21 08:13:21;;;;;;;;;;;6.90;99.90;;;;;;5072633;28;19919;-80
2023/01/21 08:15:50;;;;;;;;;;;6.80;99.90;;;;;;5072686;28;20014;-77
2023/01/21 08:18:15;;;;;;;;;;;6.70;99.90;;;;;;5072767;28;19908;-78
2023/01/21 08:20:42;;;;;;;;;;;6.70;99.90;;;;;;5072141;28;19916;-79
2023/01/21 08:23:07;;;;;;;;;;;6.70;99.90;;;;;;5072589;28;19923;-79
2023/01/21 08:25:33;;;;;;;;;;;6.70;99.90;;;;;;5072362;28;19908;-79
2023/01/21 08:27:59;;;;;;;;;;;6.60;99.90;;;;;;5072961;28;19909;-78
2023/01/21 08:30:24;;;;;;;;;;;6.60;99.90;;;;;;5071558;28;19970;-81
2023/01/21 08:32:50;;;;;;;;;;;6.60;99.90;;;;;;5072592;28;19912;-78
2023/01/21 08:35:15;;;;;;;;;;;6.50;99.90;;;;;;5072297;28;19951;-78
2023/01/21 08:37:41;;;;;;;;;;;6.50;99.90;;;;;;5071836;28;19916;-78
2023/01/21 08:40:07;;;;;;;;;;;6.40;99.90;;;;;;5072159;28;20366;-78
2023/01/21 08:42:32;;;;;;;;;;;6.40;99.90;;;;;;5071565;28;20312;-79
2023/01/21 08:44:58;;;;;;;;;;;6.40;99.90;;;;;;5071859;28;19915;-78
2023/01/21 08:47:24;;;;;;;;;;;6.40;99.90;;;;;;5070484;28;19908;-82
2023/01/21 08:49:49;;;;;;;;;;;6.40;99.90;;;;;;5064789;28;19912;-78
2023/01/21 08:52:16;;;;;;;;;;;6.30;99.90;;;;;;5062308;28;19912;-79
2023/01/21 08:54:41;;;;;;;;;;;6.30;99.90;;;;;;5070069;28;19963;-79
2023/01/21 08:57:07;;;;;;;;;;;6.30;99.90;;;;;;5065523;28;19971;-79
2023/01/21 08:59:33;;;;;;;;;;;6.30;99.90;;;;;;5061955;28;19958;-78
2023/01/21 09:01:58;;;;;;;;;;;6.30;99.90;;;;;;5055611;28;19909;-79
2023/01/21 09:04:24;;;;;;;;;;;6.30;99.90;;;;;;5060613;28;19913;-82
2023/01/21 09:06:49;;;;;;;;;;;6.30;99.90;;;;;;5061211;28;19913;-79
2023/01/21 09:09:15;;;;;;;;;;;6.30;99.90;;;;;;5068332;28;20007;-79
2023/01/21 09:11:41;;;;;;;;;;;6.30;99.90;;;;;;5067857;28;19920;-78
2023/01/21 09:14:07;;;;;;;;;;;6.30;99.90;;;;;;5055427;28;20022;-78
2023/01/21 09:16:32;;;;;;;;;;;6.30;99.90;;;;;;5057602;28;20380;-78
2023/01/21 09:18:58;;;;;;;;;;;6.30;99.90;;;;;;5059020;28;19909;-78
2023/01/21 09:21:25;;;;;;;;;;;6.30;99.90;;;;;;5064059;28;20278;-79
2023/01/21 09:23:50;;;;;;;;;;;6.30;99.90;;;;;;5061097;28;20025;-78
2023/01/21 09:26:17;;;;;;;;;;;6.20;99.90;;;;;;5060711;28;20323;-78
2023/01/21 09:28:43;;;;;;;;;;;6.20;99.90;;;;;;5058960;28;19915;-80
2023/01/21 09:31:11;;;;;;;;;;;6.20;99.90;;;;;;5062244;28;20373;-78
2023/01/21 09:33:37;;;;;;;;;;;6.20;99.90;;;;;;5061099;28;19908;-78
2023/01/21 09:36:04;;;;;;;;;;;6.20;99.90;;;;;;5061450;28;19909;-79
2023/01/21 09:38:30;;;;;;;;;;;6.20;99.90;;;;;;5061764;28;20044;-79
2023/01/21 09:41:10;;;;;;;;;;;6.20;99.90;;;;;;5061397;28;20352;-78
2023/01/21 09:43:39;;;;;;;;;;;6.20;99.90;;;;;;5051647;28;19959;-78
2023/01/21 09:46:10;;;;;;;;;;;6.20;99.90;;;;;;5051089;28;19909;-78
2023/01/21 09:48:40;;;;;;;;;;;6.10;99.90;;;;;;5053785;28;20369;-78
2023/01/21 09:51:13;;;;;;;;;;;6.20;99.90;;;;;;5059958;28;20348;-78
2023/01/21 09:53:46;;;;;;;;;;;6.10;99.90;;;;;;5059047;28;19909;-78
2023/01/21 09:56:19;;;;;;;;;;;6.20;99.90;;;;;;5051638;28;20015;-79
2023/01/21 09:58:48;;;;;;;;;;;6.10;99.90;;;;;;5050531;28;20266;-78
2023/01/21 10:01:23;;;;;;;;;;;6.20;99.90;;;;;;5049893;28;19982;-80
2023/01/21 10:03:58;;;;;;;;;;;6.20;99.90;;;;;;5050826;28;19977;-78
2023/01/21 10:06:44;;;;;;;;;;;6.20;99.90;;;;;;5049169;28;19909;-78
2023/01/21 10:09:17;;;;;;;;;;;6.30;99.90;;;;;;5050135;28;19909;-77
2023/01/21 10:11:53;;;;;;;;;;;6.30;99.90;;;;;;5049826;28;19917;-77
2023/01/21 10:14:38;;;;;;;;;;;6.30;99.90;;;;;;5050249;28;19916;-78
2023/01/21 10:17:06;;;;;;;;;;;6.30;99.90;;;;;;5050579;28;19996;-78
2023/01/21 10:19:38;;;;;;;;;;;6.40;99.90;;;;;;5049968;28;19916;-78
2023/01/21 10:22:23;;;;;;;;;;;6.40;99.90;;;;;;5051316;28;19909;-78
2023/01/21 10:25:01;;;;;;;;;;;6.40;99.90;;;;;;5049523;28;19909;-78
2023/01/21 10:27:29;;;;;;;;;;;6.40;99.90;;;;;;5050863;28;20278;-78
2023/01/21 10:29:58;;;;;;;;;;;6.50;99.90;;;;;;5050045;28;20334;-78
2023/01/21 10:32:24;;;;;;;;;;;6.50;99.90;;;;;;5050871;28;19915;-77
2023/01/21 10:34:52;;;;;;;;;;;6.50;99.90;;;;;;5062809;28;20105;-79
2023/01/21 10:37:20;;;;;;;;;;;6.50;99.90;;;;;;5063455;28;20349;-78
2023/01/21 10:40:04;;;;;;;;;;;6.50;99.90;;;;;;5073412;28;20008;-78
2023/01/21 10:42:52;;;;;;;;;;;6.50;99.90;;;;;;5074124;28;20334;-81
2023/01/21 10:45:47;;;;;;;;;;;6.60;99.90;;;;;;5074128;28;19970;-78
2023/01/21 10:48:12;;;;;;;;;;;6.60;99.90;;;;;;5019328;28;19928;-78
2023/01/21 10:50:54;;;;;;;;;;;6.60;99.90;;;;;;5072450;28;19917;-77
2023/01/21 10:53:32;;;;;;;;;;;6.70;99.90;;;;;;5073892;28;20057;-77
2023/01/21 10:56:10;;;;;;;;;;;6.70;99.90;;;;;;5073367;28;19999;-78
2023/01/21 10:58:52;;;;;;;;;;;6.80;99.90;;;;;;5073669;28;19947;-78
2023/01/21 11:01:28;;;;;;;;;;;6.80;99.90;;;;;;5073710;28;19920;-78
2023/01/21 11:03:56;;;;;;;;;;;6.80;99.90;;;;;;5073114;28;20457;-78
2023/01/21 11:06:22;;;;;;;;;;;6.80;99.90;;;;;;5072225;28;19909;-78
2023/01/21 11:08:51;;;;;;;;;;;6.80;99.90;;;;;;5072956;28;19909;-78
2023/01/21 11:11:25;;;;;;;;;;;6.90;99.90;;;;;;5071852;28;19927;-78
2023/01/21 11:13:50;;;;;;;;;;;6.90;99.90;;;;;;5072988;28;20035;-78
2023/01/21 11:16:29;;;;;;;;;;;6.90;99.90;;;;;;5073578;28;20019;-77
2023/01/21 11:18:56;;;;;;;;;;;6.90;99.90;;;;;;5073356;28;19909;-78
2023/01/21 11:21:23;;;;;;;;;;;7.00;99.90;;;;;;5072584;28;19935;-78
2023/01/21 11:24:00;;;;;;;;;;;7.00;99.90;;;;;;5072746;28;19916;-78
2023/01/21 11:26:27;;;;;;;;;;;7.10;99.90;;;;;;5073298;28;19908;-77
2023/01/21 11:29:05;;;;;;;;;;;7.20;99.90;;;;;;5073089;28;19954;-77
2023/01/21 11:31:32;;;;;;;;;;;7.30;99.90;;;;;;5073146;28;20425;-77
2023/01/21 11:34:18;;;;;;;;;;;7.40;99.90;;;;;;5073044;28;19931;-78
2023/01/21 11:36:57;;;;;;;;;;;7.50;99.90;;;;;;5072124;28;19908;-80
2023/01/21 11:39:24;;;;;;;;;;;7.50;99.90;;;;;;5071707;28;19908;-79
2023/01/21 11:41:51;;;;;;;;;;;7.60;99.90;;;;;;5064757;28;20030;-77
2023/01/21 11:44:17;;;;;;;;;;;7.60;99.90;;;;;;5063003;28;19917;-77
2023/01/21 11:46:43;;;;;;;;;;;7.70;99.90;;;;;;5054812;28;19912;-79
2023/01/21 11:49:09;;;;;;;;;;;7.80;99.90;;;;;;5063633;28;19931;-79
2023/01/21 11:51:35;;;;;;;;;;;7.80;99.90;;;;;;5063548;28;19917;-79
2023/01/21 11:54:11;;;;;;;;;;;7.80;99.90;;;;;;5055510;28;19909;-77
2023/01/21 11:56:37;;;;;;;;;;;7.80;99.90;;;;;;5053808;28;19927;-83
2023/01/21 11:59:21;;;;;;;;;;;7.80;99.90;;;;;;5053782;28;19995;-78
2023/01/21 12:02:10;;;;;;;;;;;7.90;99.90;;;;;;5053528;28;19909;-79
2023/01/21 12:04:36;;;;;;;;;;;7.90;99.90;;;;;;5053437;28;19920;-82
2023/01/21 12:07:02;;;;;;;;;;;7.90;99.90;;;;;;5058819;28;19912;-78
2023/01/21 12:09:28;;;;;;;;;;;8.00;99.90;;;;;;5073278;28;19915;-77
2023/01/21 12:12:15;;;;;;;;;;;8.00;99.90;;;;;;5072787;28;19916;-77
2023/01/21 12:15:03;;;;;;;;;;;8.10;99.90;;;;;;5073224;28;19943;-77
2023/01/21 12:17:47;;;;;;;;;;;8.20;99.90;;;;;;5074642;28;19948;-77
2023/01/21 12:20:12;;;;;;;;;;;8.30;99.90;;;;;;5071905;28;20345;-76
2023/01/21 12:22:49;;;;;;;;;;;8.30;99.90;;;;;;5073218;28;19908;-81
2023/01/21 12:25:24;;;;;;;;;;;8.30;99.90;;;;;;5073452;28;19909;-78
2023/01/21 12:28:02;;;;;;;;;;;8.30;99.90;;;;;;5071391;28;19939;-77
2023/01/21 12:30:39;;;;;;;;;;;8.30;99.90;;;;;;5073564;28;20366;-77
2023/01/21 12:33:24;;;;;;;;;;;8.30;99.90;;;;;;5073309;28;19999;-77
2023/01/21 12:35:52;;;;;;;;;;;8.30;99.90;;;;;;5061697;28;19970;-77
2023/01/21 12:38:29;;;;;;;;;;;8.40;99.90;;;;;;5072892;28;19908;-77
2023/01/21 12:41:09;;;;;;;;;;;8.50;99.90;;;;;;5072610;28;19909;-76
2023/01/21 12:43:45;;;;;;;;;;;8.50;99.90;;;;;;5073382;28;19908;-77
2023/01/21 12:46:14;;;;;;;;;;;8.40;99.90;;;;;;5072352;28;19919;-76
2023/01/21 12:48:42;;;;;;;;;;;8.50;99.90;;;;;;5072092;28;20016;-80
2023/01/21 12:51:10;;;;;;;;;;;8.50;99.90;;;;;;5072176;28;19916;-78
2023/01/21 12:53:38;;;;;;;;;;;8.40;99.90;;;;;;5071512;28;20376;-77
2023/01/21 12:56:22;;;;;;;;;;;8.40;99.90;;;;;;5069859;28;19927;-78
2023/01/21 12:58:54;;;;;;;;;;;8.50;99.90;;;;;;5069165;28;19917;-76
2023/01/21 13:01:32;;;;;;;;;;;8.40;99.90;;;;;;5060882;28;20014;-76
2023/01/21 13:04:07;;;;;;;;;;;8.40;99.90;;;;;;5066389;28;19924;-76
2023/01/21 13:06:40;;;;;;;;;;;8.40;99.90;;;;;;5059612;28;19909;-76
2023/01/21 13:09:18;;;;;;;;;;;8.40;99.90;;;;;;5072520;28;19908;-77
2023/01/21 13:12:06;;;;;;;;;;;8.30;99.90;;;;;;5072232;28;19988;-79
2023/01/21 13:14:37;;;;;;;;;;;8.40;99.90;;;;;;5064384;28;19908;-76
2023/01/21 13:17:10;;;;;;;;;;;8.40;99.90;;;;;;5070757;28;19916;-77
2023/01/21 13:19:35;;;;;;;;;;;8.40;99.90;;;;;;5074534;28;19930;-76
2023/01/21 13:22:20;;;;;;;;;;;8.40;99.90;;;;;;5074341;28;20537;-76
2023/01/21 13:24:45;;;;;;;;;;;8.40;99.90;;;;;;5070730;28;19923;-77
2023/01/21 13:27:19;;;;;;;;;;;8.40;99.90;;;;;;5072707;28;19913;-78
2023/01/21 13:30:22;;;;;;;;;;;8.40;99.90;;;;;;5070890;28;20008;-79
2023/01/21 13:32:56;;;;;;;;;;;8.40;99.90;;;;;;5008457;28;19918;-76
2023/01/21 13:35:28;;;;;;;;;;;8.30;99.90;;;;;;5009212;28;20204;-76
2023/01/21 13:37:53;;;;;;;;;;;8.30;99.90;;;;;;5043061;28;19920;-77
2023/01/21 13:40:22;;;;;;;;;;;8.20;99.90;;;;;;5071569;28;19970;-77
2023/01/21 13:43:01;;;;;;;;;;;8.30;99.90;;;;;;5070227;28;19958;-77
2023/01/21 13:45:30;;;;;;;;;;;8.30;99.90;;;;;;5062686;28;20235;-77
2023/01/21 13:47:55;;;;;;;;;;;8.30;99.90;;;;;;5058018;28;20222;-76
2023/01/21 13:50:42;;;;;;;;;;;8.20;99.90;;;;;;5060998;28;19917;-77
2023/01/21 13:53:08;;;;;;;;;;;8.20;99.90;;;;;;5060600;28;19958;-77
2023/01/21 13:55:56;;;;;;;;;;;8.20;99.90;;;;;;5057115;28;20269;-77
2023/01/21 13:58:42;;;;;;;;;;;8.20;99.90;;;;;;5062146;28;19940;-77
2023/01/21 14:01:12;;;;;;;;;;;8.20;99.90;;;;;;5059984;28;19932;-77
2023/01/21 14:03:48;;;;;;;;;;;8.20;99.90;;;;;;5061405;28;19966;-77
2023/01/21 14:06:17;;;;;;;;;;;8.20;99.90;;;;;;5066162;28;19930;-77
2023/01/21 14:08:47;;;;;;;;;;;8.20;99.90;;;;;;5074460;28;20361;-77
2023/01/21 14:11:17;;;;;;;;;;;8.20;99.90;;;;;;5071164;28;19920;-78
2023/01/21 14:14:01;;;;;;;;;;;8.20;99.90;;;;;;5064825;28;19996;-77
2023/01/21 14:16:46;;;;;;;;;;;8.20;99.90;;;;;;5055382;28;19912;-77
2023/01/21 14:19:32;;;;;;;;;;;8.10;99.90;;;;;;5055697;28;20350;-78
2023/01/21 14:22:00;;;;;;;;;;;8.20;99.90;;;;;;5055265;28;19916;-77
2023/01/21 14:24:28;;;;;;;;;;;8.20;99.90;;;;;;5055359;28;19931;-77
2023/01/21 14:26:54;;;;;;;;;;;8.20;99.90;;;;;;5054879;28;19947;-77
2023/01/21 14:29:25;;;;;;;;;;;8.20;99.90;;;;;;5055320;28;19964;-77
2023/01/21 14:31:56;;;;;;;;;;;8.20;99.90;;;;;;5054720;28;19917;-77
2023/01/21 14:34:45;;;;;;;;;;;8.20;99.90;;;;;;5054781;28;20423;-76
2023/01/21 14:37:16;;;;;;;;;;;8.30;99.90;;;;;;5043582;28;20350;-77
2023/01/21 14:39:42;;;;;;;;;;;8.30;99.90;;;;;;5055155;28;19913;-77
2023/01/21 14:42:11;;;;;;;;;;;8.40;99.90;;;;;;5054439;28;20346;-77
2023/01/21 14:44:38;;;;;;;;;;;8.40;99.90;;;;;;5054645;28;20418;-77
2023/01/21 14:47:13;;;;;;;;;;;8.40;99.90;;;;;;5054551;28;19908;-77
2023/01/21 14:49:43;;;;;;;;;;;8.50;99.90;;;;;;5054531;28;19935;-76